createdAt,value
2018-01-15T00:00:27.319Z,77.28
2018-01-15T00:01:34.059Z,77.30
2018-01-15T00:02:41.111Z,77.31
2018-01-15T00:03:47.857Z,77.38
2018-01-15T00:04:54.556Z,77.39
2018-01-15T00:06:01.404Z,77.42
2018-01-15T00:07:08.132Z,77.42
2018-01-15T00:08:14.859Z,77.45
2018-01-15T00:09:21.604Z,77.46
2018-01-15T00:10:28.311Z,77.47
2018-01-15T00:11:35.016Z,77.48
2018-01-15T00:12:41.851Z,77.49
2018-01-15T00:13:48.680Z,77.54
2018-01-15T00:14:55.443Z,77.59
2018-01-15T00:16:02.181Z,77.61
2018-01-15T00:17:08.988Z,77.62
2018-01-15T00:18:15.752Z,77.61
2018-01-15T00:19:22.476Z,77.62
2018-01-15T00:20:29.195Z,77.66
2018-01-15T00:21:35.923Z,77.67
2018-01-15T00:22:42.792Z,77.68
2018-01-15T00:23:49.547Z,77.68
2018-01-15T00:24:56.286Z,77.77
2018-01-15T00:26:03.035Z,77.78
2018-01-15T00:27:09.736Z,77.83
2018-01-15T00:28:16.576Z,77.83
2018-01-15T00:29:23.303Z,77.87
2018-01-15T00:30:30.033Z,77.92
2018-01-15T00:31:36.806Z,77.94
2018-01-15T00:32:43.518Z,77.97
2018-01-15T00:33:50.547Z,78.02
2018-01-15T00:34:57.295Z,78.01
2018-01-15T00:36:04.015Z,78.05
2018-01-15T00:37:10.847Z,78.06
2018-01-15T00:38:17.579Z,78.11
2018-01-15T00:39:24.327Z,78.15
2018-01-15T00:40:31.052Z,78.19
2018-01-15T00:41:37.863Z,78.18
2018-01-15T00:42:44.648Z,78.25
2018-01-15T00:43:51.354Z,78.28
2018-01-15T00:44:58.100Z,78.31
2018-01-15T00:46:04.851Z,78.37
2018-01-15T00:47:11.563Z,78.38
2018-01-15T00:48:18.280Z,78.39
2018-01-15T00:49:24.963Z,78.38
2018-01-15T00:50:31.795Z,78.38
2018-01-15T00:51:38.492Z,78.45
2018-01-15T00:52:45.202Z,78.49
2018-01-15T00:53:51.947Z,78.51
2018-01-15T00:54:58.685Z,78.53
2018-01-15T00:56:05.420Z,78.53
2018-01-15T00:57:12.224Z,78.55
2018-01-15T00:58:18.958Z,78.59
2018-01-15T00:59:25.673Z,78.60
2018-01-15T01:00:32.679Z,78.62
2018-01-15T01:01:39.391Z,78.63
2018-01-15T01:02:46.103Z,78.65
2018-01-15T01:03:52.839Z,78.66
2018-01-15T01:04:59.539Z,78.69
2018-01-15T01:06:06.300Z,78.72
2018-01-15T01:07:12.994Z,78.75
2018-01-15T01:08:19.787Z,78.79
2018-01-15T01:09:26.475Z,78.80
2018-01-15T01:10:33.183Z,78.85
2018-01-15T01:11:39.912Z,78.89
2018-01-15T01:12:46.644Z,78.91
2018-01-15T01:13:53.338Z,78.96
2018-01-15T01:15:00.058Z,79.01
2018-01-15T01:16:06.898Z,79.06
2018-01-15T01:17:13.699Z,79.10
2018-01-15T01:18:20.440Z,79.16
2018-01-15T01:19:27.132Z,79.18
2018-01-15T01:20:33.832Z,79.19
2018-01-15T01:21:40.535Z,79.20
2018-01-15T01:22:47.327Z,79.22
2018-01-15T01:23:54.019Z,79.25
2018-01-15T01:25:00.752Z,79.30
2018-01-15T01:26:07.520Z,79.30
2018-01-15T01:27:14.241Z,79.30
2018-01-15T01:28:20.959Z,79.31
2018-01-15T01:29:27.748Z,79.35
2018-01-15T01:30:34.438Z,79.37
2018-01-15T01:31:41.178Z,79.43
2018-01-15T01:32:47.894Z,79.41
2018-01-15T01:33:54.624Z,79.44
2018-01-15T01:35:01.360Z,79.45
2018-01-15T01:36:08.139Z,79.54
2018-01-15T01:37:14.847Z,79.58
2018-01-15T01:38:21.567Z,79.58
2018-01-15T01:39:28.260Z,79.59
2018-01-15T01:40:34.983Z,79.61
2018-01-15T01:41:41.711Z,79.63
2018-01-15T01:42:48.610Z,79.65
2018-01-15T01:43:55.226Z,79.69
2018-01-15T01:45:02.059Z,79.73
2018-01-15T01:46:09.091Z,79.75
2018-01-15T01:47:15.796Z,79.75
2018-01-15T01:48:22.539Z,79.78
2018-01-15T01:49:29.244Z,79.77
2018-01-15T01:50:35.952Z,79.80
2018-01-15T01:51:42.784Z,79.83
2018-01-15T01:52:49.520Z,79.82
2018-01-15T01:53:56.283Z,79.85
2018-01-15T01:55:02.995Z,79.86
2018-01-15T01:56:09.802Z,79.86
2018-01-15T01:57:16.780Z,79.90
2018-01-15T01:58:23.474Z,79.94
2018-01-15T01:59:30.196Z,79.97
2018-01-15T02:00:36.952Z,80.00
2018-01-15T02:01:43.647Z,79.97
2018-01-15T02:02:50.360Z,79.98
2018-01-15T02:03:57.076Z,80.00
2018-01-15T02:05:03.836Z,80.02
2018-01-15T02:06:10.639Z,80.07
2018-01-15T02:07:17.323Z,80.07
2018-01-15T02:08:24.032Z,80.08
2018-01-15T02:09:30.762Z,80.12
2018-01-15T02:10:37.498Z,80.13
2018-01-15T02:11:44.203Z,80.14
2018-01-15T02:12:51.003Z,80.18
2018-01-15T02:13:57.724Z,80.20
2018-01-15T02:15:04.642Z,80.24
2018-01-15T02:16:11.400Z,80.25
2018-01-15T02:17:18.093Z,80.25
2018-01-15T02:18:25.179Z,80.28
2018-01-15T02:19:31.895Z,80.29
2018-01-15T02:20:38.626Z,80.36
2018-01-15T02:21:45.323Z,80.38
2018-01-15T02:22:52.036Z,80.40
2018-01-15T02:23:58.727Z,80.43
2018-01-15T02:25:05.499Z,80.45
2018-01-15T02:26:12.241Z,80.45
2018-01-15T02:27:19.022Z,80.47
2018-01-15T02:28:25.936Z,80.50
2018-01-15T02:29:32.636Z,80.51
2018-01-15T02:30:39.363Z,80.52
2018-01-15T02:31:46.099Z,80.54
2018-01-15T02:32:52.812Z,80.54
2018-01-15T02:33:59.524Z,80.57
2018-01-15T02:35:06.263Z,80.57
2018-01-15T02:36:13.130Z,80.56
2018-01-15T02:37:19.847Z,80.58
2018-01-15T02:38:26.622Z,80.57
2018-01-15T02:39:33.332Z,80.59
2018-01-15T02:40:40.059Z,80.56
2018-01-15T02:41:46.819Z,80.57
2018-01-15T02:42:53.536Z,80.56
2018-01-15T02:44:00.388Z,80.58
2018-01-15T02:45:07.102Z,80.62
2018-01-15T02:46:13.844Z,80.62
2018-01-15T02:47:20.676Z,80.61
2018-01-15T02:48:27.500Z,80.60
2018-01-15T02:49:34.183Z,80.58
2018-01-15T02:50:40.880Z,80.61
2018-01-15T02:51:47.623Z,80.64
2018-01-15T02:52:54.367Z,80.66
2018-01-15T02:54:01.071Z,80.65
2018-01-15T02:55:07.896Z,80.68
2018-01-15T02:56:14.602Z,80.67
2018-01-15T02:57:21.316Z,80.64
2018-01-15T02:58:28.031Z,80.63
2018-01-15T02:59:34.733Z,80.67
2018-01-15T03:00:41.453Z,80.69
2018-01-15T03:01:48.143Z,80.69
2018-01-15T03:02:54.848Z,80.69
2018-01-15T03:04:01.680Z,80.71
2018-01-15T03:05:08.372Z,80.73
2018-01-15T03:06:15.083Z,80.72
2018-01-15T03:07:21.800Z,80.74
2018-01-15T03:08:28.687Z,80.74
2018-01-15T03:09:35.486Z,80.78
2018-01-15T03:10:42.214Z,80.76
2018-01-15T03:11:48.931Z,80.75
2018-01-15T03:12:55.652Z,80.75
2018-01-15T03:14:02.486Z,80.76
2018-01-15T03:15:09.267Z,80.82
2018-01-15T03:16:15.973Z,80.82
2018-01-15T03:17:22.686Z,80.80
2018-01-15T03:18:29.421Z,80.80
2018-01-15T03:19:36.180Z,80.83
2018-01-15T03:20:42.879Z,80.80
2018-01-15T03:21:49.691Z,80.83
2018-01-15T03:22:56.414Z,80.81
2018-01-15T03:24:03.143Z,80.83
2018-01-15T03:25:09.874Z,80.85
2018-01-15T03:26:16.615Z,80.85
2018-01-15T03:27:23.296Z,80.85
2018-01-15T03:28:30.115Z,80.80
2018-01-15T03:29:37.019Z,80.85
2018-01-15T03:30:43.932Z,80.83
2018-01-15T03:31:50.681Z,80.83
2018-01-15T03:32:57.407Z,80.85
2018-01-15T03:34:04.101Z,80.82
2018-01-15T03:35:10.851Z,80.78
2018-01-15T03:36:17.535Z,80.83
2018-01-15T03:37:24.263Z,80.84
2018-01-15T03:38:31.145Z,80.84
2018-01-15T03:39:37.859Z,80.81
2018-01-15T03:40:44.601Z,80.83
2018-01-15T03:41:51.296Z,80.83
2018-01-15T03:42:57.993Z,80.85
2018-01-15T03:44:04.678Z,80.86
2018-01-15T03:45:11.499Z,80.85
2018-01-15T03:46:18.212Z,80.85
2018-01-15T03:47:24.960Z,80.85
2018-01-15T03:48:31.671Z,80.90
2018-01-15T03:49:38.359Z,80.87
2018-01-15T03:50:45.132Z,80.90
2018-01-15T03:51:51.898Z,80.92
2018-01-15T03:52:58.579Z,80.91
2018-01-15T03:54:05.291Z,80.90
2018-01-15T03:55:11.987Z,80.91
2018-01-15T03:56:18.732Z,80.89
2018-01-15T03:57:25.428Z,80.90
2018-01-15T03:58:32.166Z,80.90
2018-01-15T03:59:38.842Z,80.85
2018-01-15T04:00:45.836Z,80.85
2018-01-15T04:01:52.536Z,80.82
2018-01-15T04:02:59.224Z,80.85
2018-01-15T04:04:05.923Z,80.81
2018-01-15T04:05:12.632Z,80.77
2018-01-15T04:06:19.455Z,80.75
2018-01-15T04:07:26.169Z,80.73
2018-01-15T04:08:32.875Z,80.73
2018-01-15T04:09:39.603Z,80.69
2018-01-15T04:10:46.295Z,80.65
2018-01-15T04:11:53.015Z,80.60
2018-01-15T04:12:59.716Z,80.61
2018-01-15T04:14:06.504Z,80.60
2018-01-15T04:15:13.199Z,80.56
2018-01-15T04:16:19.918Z,80.56
2018-01-15T04:17:26.687Z,80.56
2018-01-15T04:18:33.438Z,80.51
2018-01-15T04:19:40.151Z,80.49
2018-01-15T04:20:46.835Z,80.49
2018-01-15T04:21:53.731Z,80.45
2018-01-15T04:23:00.479Z,80.44
2018-01-15T04:24:07.223Z,80.41
2018-01-15T04:25:13.951Z,80.42
2018-01-15T04:26:20.768Z,80.42
2018-01-15T04:27:27.606Z,80.41
2018-01-15T04:28:34.359Z,80.38
2018-01-15T04:29:41.073Z,80.43
2018-01-15T04:30:48.203Z,80.43
2018-01-15T04:31:54.906Z,80.42
2018-01-15T04:33:01.724Z,80.38
2018-01-15T04:34:08.531Z,80.40
2018-01-15T04:35:15.231Z,80.38
2018-01-15T04:36:21.948Z,80.39
2018-01-15T04:37:28.837Z,80.38
2018-01-15T04:38:35.620Z,80.41
2018-01-15T04:39:42.304Z,80.39
2018-01-15T04:40:49.017Z,80.41
2018-01-15T04:41:55.731Z,80.44
2018-01-15T04:43:02.434Z,80.42
2018-01-15T04:44:09.147Z,80.44
2018-01-15T04:45:15.935Z,80.47
2018-01-15T04:46:22.632Z,80.49
2018-01-15T04:47:29.350Z,80.49
2018-01-15T04:48:36.114Z,80.49
2018-01-15T04:49:42.804Z,80.49
2018-01-15T04:50:49.514Z,80.50
2018-01-15T04:51:56.343Z,80.49
2018-01-15T04:53:03.043Z,80.54
2018-01-15T04:54:09.751Z,80.53
2018-01-15T04:55:16.476Z,80.57
2018-01-15T04:56:23.199Z,80.58
2018-01-15T04:57:29.882Z,80.58
2018-01-15T04:58:36.599Z,80.60
2018-01-15T04:59:43.457Z,80.64
2018-01-15T05:00:50.166Z,80.64
2018-01-15T05:01:56.871Z,80.63
2018-01-15T05:03:03.587Z,80.65
2018-01-15T05:04:10.656Z,80.69
2018-01-15T05:05:17.390Z,80.72
2018-01-15T05:06:24.182Z,80.73
2018-01-15T05:07:30.875Z,80.79
2018-01-15T05:08:37.680Z,80.80
2018-01-15T05:09:44.362Z,80.85
2018-01-15T05:10:51.043Z,80.84
2018-01-15T05:11:57.738Z,80.87
2018-01-15T05:13:04.450Z,80.88
2018-01-15T05:14:11.150Z,80.87
2018-01-15T05:15:17.883Z,80.89
2018-01-15T05:16:24.564Z,80.89
2018-01-15T05:17:31.260Z,80.93
2018-01-15T05:18:37.927Z,80.93
2018-01-15T05:19:44.747Z,80.96
2018-01-15T05:20:51.494Z,81.01
2018-01-15T05:21:58.435Z,81.02
2018-01-15T05:23:05.218Z,81.05
2018-01-15T05:24:11.907Z,81.05
2018-01-15T05:25:18.815Z,81.04
2018-01-15T05:26:25.494Z,81.08
2018-01-15T05:27:32.321Z,81.10
2018-01-15T05:28:39.019Z,81.10
2018-01-15T05:29:45.700Z,81.13
2018-01-15T05:30:52.451Z,81.13
2018-01-15T05:31:59.196Z,81.15
2018-01-15T05:33:05.895Z,81.21
2018-01-15T05:34:12.579Z,81.21
2018-01-15T05:35:19.256Z,81.21
2018-01-15T05:36:26.082Z,81.24
2018-01-15T05:37:32.804Z,81.26
2018-01-15T05:38:39.508Z,81.29
2018-01-15T05:39:46.244Z,81.31
2018-01-15T05:40:52.950Z,81.33
2018-01-15T05:41:59.659Z,81.36
2018-01-15T05:43:06.336Z,81.39
2018-01-15T05:44:13.041Z,81.45
2018-01-15T05:45:19.947Z,81.43
2018-01-15T05:46:26.664Z,81.49
2018-01-15T05:47:33.375Z,81.48
2018-01-15T05:48:40.056Z,81.50
2018-01-15T05:49:46.767Z,81.51
2018-01-15T05:50:53.499Z,81.52
2018-01-15T05:52:00.223Z,81.56
2018-01-15T05:53:07.035Z,81.61
2018-01-15T05:54:13.794Z,81.62
2018-01-15T05:55:20.568Z,81.67
2018-01-15T05:56:27.374Z,81.68
2018-01-15T05:57:34.163Z,81.68
2018-01-15T05:58:40.943Z,81.74
2018-01-15T05:59:47.688Z,81.76
2018-01-15T06:00:54.431Z,81.78
2018-01-15T06:02:01.326Z,81.80
2018-01-15T06:03:08.021Z,81.84
2018-01-15T06:04:14.777Z,81.81
2018-01-15T06:05:21.553Z,81.85
2018-01-15T06:06:28.266Z,81.88
2018-01-15T06:07:35.078Z,81.93
2018-01-15T06:08:41.802Z,81.93
2018-01-15T06:09:48.520Z,81.95
2018-01-15T06:10:55.225Z,81.95
2018-01-15T06:12:01.948Z,81.95
2018-01-15T06:13:08.680Z,81.99
2018-01-15T06:14:15.508Z,81.99
2018-01-15T06:15:22.204Z,81.98
2018-01-15T06:16:28.892Z,81.99
2018-01-15T06:17:35.600Z,82.01
2018-01-15T06:18:42.320Z,82.04
2018-01-15T06:19:49.042Z,82.08
2018-01-15T06:20:55.727Z,82.10
2018-01-15T06:22:02.455Z,82.10
2018-01-15T06:23:09.276Z,82.15
2018-01-15T06:24:16.000Z,82.16
2018-01-15T06:25:22.727Z,82.14
2018-01-15T06:26:29.415Z,82.17
2018-01-15T06:27:36.137Z,82.18
2018-01-15T06:28:42.826Z,82.19
2018-01-15T06:29:49.559Z,82.18
2018-01-15T06:30:56.391Z,82.19
2018-01-15T06:32:03.086Z,82.20
2018-01-15T06:33:09.842Z,82.24
2018-01-15T06:34:16.566Z,82.27
2018-01-15T06:35:23.272Z,82.27
2018-01-15T06:36:29.964Z,82.27
2018-01-15T06:37:36.660Z,82.30
2018-01-15T06:38:43.375Z,82.33
2018-01-15T06:39:50.216Z,82.29
2018-01-15T06:40:56.968Z,82.28
2018-01-15T06:42:03.789Z,82.28
2018-01-15T06:43:10.476Z,82.30
2018-01-15T06:44:17.168Z,82.32
2018-01-15T06:45:23.981Z,82.35
2018-01-15T06:46:30.668Z,82.37
2018-01-15T06:47:37.379Z,82.39
2018-01-15T06:48:44.100Z,82.41
2018-01-15T06:49:50.788Z,82.43
2018-01-15T06:50:57.520Z,82.42
2018-01-15T06:52:04.195Z,82.47
2018-01-15T06:53:10.911Z,82.48
2018-01-15T06:54:17.996Z,82.47
2018-01-15T06:55:24.734Z,82.50
2018-01-15T06:56:31.402Z,82.49
2018-01-15T06:57:38.214Z,82.51
2018-01-15T06:58:44.988Z,82.54
2018-01-15T06:59:52.052Z,82.58
2018-01-15T07:00:58.769Z,82.62
2018-01-15T07:02:05.539Z,82.64
2018-01-15T07:03:12.272Z,82.65
2018-01-15T07:04:18.961Z,82.65
2018-01-15T07:05:25.644Z,82.68
2018-01-15T07:06:32.355Z,82.67
2018-01-15T07:07:39.164Z,82.69
2018-01-15T07:08:45.868Z,82.65
2018-01-15T07:09:52.559Z,82.68
2018-01-15T07:10:59.443Z,82.71
2018-01-15T07:12:06.172Z,82.69
2018-01-15T07:13:12.959Z,82.73
2018-01-15T07:14:19.639Z,82.76
2018-01-15T07:15:26.334Z,82.79
2018-01-15T07:16:33.031Z,82.78
2018-01-15T07:17:39.751Z,82.78
2018-01-15T07:18:46.480Z,82.79
2018-01-15T07:19:53.191Z,82.80
2018-01-15T07:20:59.903Z,82.79
2018-01-15T07:22:06.612Z,82.80
2018-01-15T07:23:13.379Z,82.76
2018-01-15T07:24:20.120Z,82.80
2018-01-15T07:25:26.856Z,82.78
2018-01-15T07:26:33.539Z,82.78
2018-01-15T07:27:40.279Z,82.76
2018-01-15T07:28:46.992Z,82.74
2018-01-15T07:29:53.795Z,82.73
2018-01-15T07:31:00.490Z,82.73
2018-01-15T07:32:07.292Z,82.71
2018-01-15T07:33:13.987Z,82.71
2018-01-15T07:34:20.731Z,82.71
2018-01-15T07:35:27.415Z,82.71
2018-01-15T07:36:34.127Z,82.72
2018-01-15T07:37:40.846Z,82.72
2018-01-15T07:38:47.603Z,82.73
2018-01-15T07:39:54.426Z,82.71
2018-01-15T07:41:01.188Z,82.71
2018-01-15T07:42:07.912Z,82.72
2018-01-15T07:43:14.614Z,82.74
2018-01-15T07:44:21.331Z,82.76
2018-01-15T07:45:28.015Z,82.75
2018-01-15T07:46:34.712Z,82.79
2018-01-15T07:47:41.402Z,82.80
2018-01-15T07:48:48.115Z,82.83
2018-01-15T07:49:54.907Z,82.85
2018-01-15T07:51:01.599Z,82.87
2018-01-15T07:52:08.330Z,82.89
2018-01-15T07:53:15.036Z,82.92
2018-01-15T07:54:21.766Z,82.89
2018-01-15T07:55:28.503Z,82.91
2018-01-15T07:56:35.187Z,82.93
2018-01-15T07:57:41.972Z,82.92
2018-01-15T07:58:48.686Z,82.90
2018-01-15T07:59:55.376Z,82.94
2018-01-15T08:01:02.164Z,82.99
2018-01-15T08:02:08.892Z,82.98
2018-01-15T08:03:15.576Z,83.00
2018-01-15T08:04:22.447Z,83.03
2018-01-15T08:05:29.123Z,83.02
2018-01-15T08:06:35.787Z,83.04
2018-01-15T08:07:42.952Z,83.07
2018-01-15T08:08:49.615Z,83.10
2018-01-15T08:09:56.320Z,83.11
2018-01-15T08:11:03.140Z,83.14
2018-01-15T08:12:09.824Z,83.19
2018-01-15T08:13:16.522Z,83.20
2018-01-15T08:14:23.203Z,83.24
2018-01-15T08:15:30.015Z,83.28
2018-01-15T08:16:36.680Z,83.28
2018-01-15T08:17:43.399Z,83.31
2018-01-15T08:18:50.097Z,83.34
2018-01-15T08:19:57.044Z,83.36
2018-01-15T08:21:03.815Z,83.40
2018-01-15T08:22:10.482Z,83.38
2018-01-15T08:23:17.190Z,83.40
2018-01-15T08:24:23.904Z,83.42
2018-01-15T08:25:30.659Z,83.44
2018-01-15T08:26:37.332Z,83.46
2018-01-15T08:27:44.021Z,83.46
2018-01-15T08:28:50.799Z,83.50
2018-01-15T08:29:57.575Z,83.54
2018-01-15T08:31:04.316Z,83.56
2018-01-15T08:32:11.048Z,83.60
2018-01-15T08:33:17.744Z,83.59
2018-01-15T08:34:24.508Z,83.62
2018-01-15T08:35:31.340Z,83.69
2018-01-15T08:36:38.082Z,83.72
2018-01-15T08:37:44.826Z,83.74
2018-01-15T08:38:51.523Z,83.77
2018-01-15T08:39:58.248Z,83.81
2018-01-15T08:41:05.234Z,83.84
2018-01-15T08:42:12.048Z,83.87
2018-01-15T08:43:19.605Z,83.89
2018-01-15T08:44:25.872Z,83.93
2018-01-15T08:45:32.929Z,83.94
2018-01-15T08:46:39.755Z,83.96
2018-01-15T08:47:46.596Z,83.99
2018-01-15T08:48:53.300Z,84.02
2018-01-15T08:50:00.004Z,84.06
2018-01-15T08:51:06.813Z,84.07
2018-01-15T08:52:13.504Z,84.09
2018-01-15T08:53:20.192Z,84.16
2018-01-15T08:54:27.029Z,84.16
2018-01-15T08:55:33.707Z,84.18
2018-01-15T08:56:40.411Z,84.22
2018-01-15T08:57:47.112Z,84.27
2018-01-15T08:58:53.844Z,84.33
2018-01-15T09:00:00.571Z,84.39
2018-01-15T09:01:07.463Z,84.43
2018-01-15T09:02:14.151Z,84.48
2018-01-15T09:03:20.854Z,84.53
2018-01-15T09:04:27.887Z,84.58
2018-01-15T09:05:34.615Z,84.62
2018-01-15T09:06:41.351Z,84.63
2018-01-15T09:07:49.115Z,84.66
2018-01-15T09:08:55.232Z,84.74
2018-01-15T09:10:01.953Z,84.79
2018-01-15T09:11:08.753Z,84.80
2018-01-15T09:12:15.476Z,84.86
2018-01-15T09:13:22.375Z,84.87
2018-01-15T09:14:29.055Z,84.91
2018-01-15T09:15:35.993Z,84.94
2018-01-15T09:16:42.772Z,84.96
2018-01-15T09:17:49.887Z,84.96
2018-01-15T09:18:56.712Z,85.01
2018-01-15T09:20:04.006Z,84.99
2018-01-15T09:21:10.813Z,84.99
2018-01-15T09:22:17.835Z,85.00
2018-01-15T09:23:24.898Z,85.01
2018-01-15T09:24:31.757Z,85.01
2018-01-15T09:25:38.811Z,85.03
2018-01-15T09:26:45.244Z,85.06
2018-01-15T09:27:52.062Z,85.10
2018-01-15T09:28:58.836Z,85.14
2018-01-15T09:30:05.538Z,85.15
2018-01-15T09:31:12.364Z,85.20
2018-01-15T09:32:19.058Z,85.23
2018-01-15T09:33:25.900Z,85.22
2018-01-15T09:34:32.631Z,85.25
2018-01-15T09:35:39.380Z,85.26
2018-01-15T09:36:46.131Z,85.28
2018-01-15T09:37:53.020Z,85.32
2018-01-15T09:38:59.724Z,85.33
2018-01-15T09:40:06.635Z,85.33
2018-01-15T09:41:13.660Z,85.40
2018-01-15T09:42:20.386Z,85.43
2018-01-15T09:44:34.213Z,85.53
2018-01-15T09:45:41.185Z,85.57
2018-01-15T09:46:47.964Z,85.64
2018-01-15T09:47:54.779Z,85.70
2018-01-15T09:49:01.666Z,85.79
2018-01-15T09:50:09.676Z,85.81
2018-01-15T09:51:15.583Z,85.87
2018-01-15T09:52:22.721Z,85.86
2018-01-15T09:53:29.994Z,85.94
2018-01-15T09:54:36.641Z,86.02
2018-01-15T09:55:44.237Z,86.02
2018-01-15T09:56:50.467Z,86.09
2018-01-15T09:57:57.717Z,86.13
2018-01-15T09:59:05.707Z,86.20
2018-01-15T10:00:10.849Z,86.22
2018-01-15T10:01:18.474Z,86.27
2018-01-15T10:02:24.721Z,86.29
2018-01-15T10:03:31.141Z,86.33
2018-01-15T10:04:38.087Z,86.41
2018-01-15T10:05:44.881Z,86.47
2018-01-15T10:06:51.723Z,86.52
2018-01-15T10:07:58.514Z,86.55
2018-01-15T10:09:05.333Z,86.62
2018-01-15T10:10:12.197Z,86.63
2018-01-15T10:11:19.088Z,86.71
2018-01-15T10:12:25.851Z,86.79
2018-01-15T10:13:32.820Z,86.83
2018-01-15T10:14:39.778Z,86.85
2018-01-15T10:15:47.784Z,86.94
2018-01-15T10:16:53.684Z,87.00
2018-01-15T10:18:00.481Z,87.02
2018-01-15T10:19:07.259Z,87.07
2018-01-15T10:20:14.207Z,87.10
2018-01-15T10:21:21.250Z,87.14
2018-01-15T10:22:28.088Z,87.20
2018-01-15T10:23:36.320Z,87.22
2018-01-15T10:24:41.862Z,87.27
2018-01-15T10:25:48.642Z,87.33
2018-01-15T10:26:55.565Z,87.43
2018-01-15T10:28:02.433Z,87.44
2018-01-15T10:29:09.335Z,87.46
2018-01-15T10:30:16.198Z,87.56
2018-01-15T10:31:22.956Z,87.57
2018-01-15T10:32:29.780Z,87.61
2018-01-15T10:33:36.671Z,87.64
2018-01-15T10:34:43.435Z,87.65
2018-01-15T10:35:50.380Z,87.66
2018-01-15T10:36:57.439Z,87.71
2018-01-15T10:38:05.697Z,87.75
2018-01-15T10:39:11.272Z,87.77
2018-01-15T10:40:18.096Z,87.85
2018-01-15T10:41:24.895Z,87.88
2018-01-15T10:42:31.732Z,87.95
2018-01-15T10:43:38.497Z,87.95
2018-01-15T10:44:48.725Z,88.00
2018-01-15T10:45:53.044Z,88.01
2018-01-15T10:46:58.895Z,88.07
2018-01-15T10:48:05.612Z,88.08
2018-01-15T10:49:12.333Z,88.12
2018-01-15T10:50:19.078Z,88.14
2018-01-15T10:51:26.017Z,88.18
2018-01-15T10:52:32.724Z,88.18
2018-01-15T10:53:39.456Z,88.17
2018-01-15T10:54:46.140Z,88.20
2018-01-15T10:55:52.888Z,88.24
2018-01-15T10:56:59.627Z,88.23
2018-01-15T10:58:06.433Z,88.29
2018-01-15T10:59:13.128Z,88.36
2018-01-15T11:00:19.820Z,88.41
2018-01-15T11:01:26.595Z,88.42
2018-01-15T11:02:33.296Z,88.46
2018-01-15T11:03:40.143Z,88.46
2018-01-15T11:04:46.913Z,88.50
2018-01-15T11:05:53.613Z,88.51
2018-01-15T11:07:00.340Z,88.55
2018-01-15T11:08:07.296Z,88.58
2018-01-15T11:09:14.023Z,88.63
2018-01-15T11:10:20.756Z,88.64
2018-01-15T11:11:27.796Z,88.67
2018-01-15T11:12:34.487Z,88.74
2018-01-15T11:13:41.208Z,88.73
2018-01-15T11:14:48.041Z,88.78
2018-01-15T11:15:54.826Z,88.81
2018-01-15T11:17:01.619Z,88.83
2018-01-15T11:18:08.335Z,88.86
2018-01-15T11:19:15.210Z,88.91
2018-01-15T11:20:21.999Z,88.93
2018-01-15T11:21:28.680Z,88.97
2018-01-15T11:22:35.787Z,89.00
2018-01-15T11:23:42.495Z,89.05
2018-01-15T11:24:49.187Z,89.07
2018-01-15T11:25:55.916Z,89.15
2018-01-15T11:27:02.678Z,89.18
2018-01-15T11:28:09.372Z,89.18
2018-01-15T11:29:16.083Z,89.19
2018-01-15T11:30:22.767Z,89.24
2018-01-15T11:31:29.632Z,89.28
2018-01-15T11:32:36.457Z,89.35
2018-01-15T11:33:43.219Z,89.38
2018-01-15T11:34:49.981Z,89.41
2018-01-15T11:35:56.736Z,89.45
2018-01-15T11:37:03.556Z,89.51
2018-01-15T11:38:10.379Z,89.56
2018-01-15T11:39:17.096Z,89.57
2018-01-15T11:40:23.838Z,89.60
2018-01-15T11:41:30.658Z,89.63
2018-01-15T11:42:37.457Z,89.69
2018-01-15T11:43:44.211Z,89.70
2018-01-15T11:44:50.918Z,89.78
2018-01-15T11:45:57.788Z,89.79
2018-01-15T11:47:04.513Z,89.80
2018-01-15T11:48:11.264Z,89.82
2018-01-15T11:49:18.021Z,89.85
2018-01-15T11:50:24.739Z,89.86
2018-01-15T11:51:31.581Z,89.84
2018-01-15T11:52:38.301Z,89.89
2018-01-15T11:53:45.068Z,89.93
2018-01-15T11:54:51.796Z,89.96
2018-01-15T11:55:58.683Z,90.02
2018-01-15T11:57:05.407Z,90.01
2018-01-15T11:58:12.130Z,90.05
2018-01-15T11:59:18.855Z,90.05
2018-01-15T12:00:25.582Z,90.07
2018-01-15T12:01:32.248Z,90.09
2018-01-15T12:02:39.071Z,90.08
2018-01-15T12:03:45.771Z,90.10
2018-01-15T12:04:52.464Z,90.11
2018-01-15T12:05:59.200Z,90.12
2018-01-15T12:07:05.905Z,90.15
2018-01-15T12:08:12.667Z,90.18
2018-01-15T12:09:19.549Z,90.17
2018-01-15T12:10:26.332Z,90.22
2018-01-15T12:11:33.088Z,90.27
2018-01-15T12:12:39.795Z,90.29
2018-01-15T12:13:46.581Z,90.28
2018-01-15T12:14:53.391Z,90.32
2018-01-15T12:16:00.104Z,90.34
2018-01-15T12:17:06.843Z,90.33
2018-01-15T12:18:13.580Z,90.36
2018-01-15T12:19:20.415Z,90.37
2018-01-15T12:20:27.134Z,90.40
2018-01-15T12:21:33.901Z,90.43
2018-01-15T12:22:40.569Z,90.46
2018-01-15T12:23:47.266Z,90.45
2018-01-15T12:24:53.999Z,90.44
2018-01-15T12:26:00.838Z,90.46
2018-01-15T12:27:07.563Z,90.47
2018-01-15T12:28:14.301Z,90.49
2018-01-15T12:29:21.033Z,90.51
2018-01-15T12:30:27.924Z,90.50
2018-01-15T12:31:34.626Z,90.53
2018-01-15T12:32:41.325Z,90.52
2018-01-15T12:33:48.028Z,90.55
2018-01-15T12:34:54.729Z,90.54
2018-01-15T12:36:01.462Z,90.54
2018-01-15T12:37:08.183Z,90.55
2018-01-15T12:38:14.952Z,90.57
2018-01-15T12:39:21.639Z,90.56
2018-01-15T12:40:28.339Z,90.58
2018-01-15T12:41:35.060Z,90.56
2018-01-15T12:42:41.776Z,90.58
2018-01-15T12:43:48.515Z,90.58
2018-01-15T12:44:55.241Z,90.58
2018-01-15T12:46:02.048Z,90.59
2018-01-15T12:47:08.791Z,90.57
2018-01-15T12:48:15.543Z,90.62
2018-01-15T12:49:22.352Z,90.62
2018-01-15T12:50:29.132Z,90.62
2018-01-15T12:51:36.088Z,90.64
2018-01-15T12:52:43.016Z,90.63
2018-01-15T12:53:49.828Z,90.59
2018-01-15T12:54:56.912Z,90.63
2018-01-15T12:56:04.031Z,90.59
2018-01-15T12:57:10.840Z,90.60
2018-01-15T12:58:17.551Z,90.61
2018-01-15T12:59:24.620Z,90.62
2018-01-15T13:00:31.359Z,90.58
2018-01-15T13:01:38.267Z,90.55
2018-01-15T13:02:45.334Z,90.55
2018-01-15T13:03:51.974Z,90.49
2018-01-15T13:04:58.668Z,90.46
2018-01-15T13:06:05.384Z,90.45
2018-01-15T13:07:12.154Z,90.38
2018-01-15T13:08:19.092Z,90.31
2018-01-15T13:09:25.920Z,90.30
2018-01-15T13:10:32.787Z,90.29
2018-01-15T13:11:39.612Z,90.23
2018-01-15T13:12:46.350Z,90.21
2018-01-15T13:13:52.986Z,90.13
2018-01-15T13:14:59.702Z,90.08
2018-01-15T13:16:06.407Z,90.10
2018-01-15T13:17:13.364Z,90.07
2018-01-15T13:18:20.064Z,90.07
2018-01-15T13:19:26.780Z,90.01
2018-01-15T13:20:33.616Z,89.95
2018-01-15T13:21:40.412Z,89.96
2018-01-15T13:22:47.173Z,89.99
2018-01-15T13:23:53.867Z,89.90
2018-01-15T13:25:00.599Z,89.85
2018-01-15T13:26:07.328Z,89.82
2018-01-15T13:27:14.184Z,89.74
2018-01-15T13:28:20.919Z,89.67
2018-01-15T13:29:27.707Z,89.56
2018-01-15T13:30:34.434Z,89.52
2018-01-15T13:31:41.220Z,89.48
2018-01-15T13:32:47.959Z,89.36
2018-01-15T13:33:54.667Z,89.34
2018-01-15T13:35:01.387Z,89.28
2018-01-15T13:36:08.099Z,89.25
2018-01-15T13:37:14.803Z,89.18
2018-01-15T13:38:21.524Z,89.14
2018-01-15T13:39:28.287Z,89.12
2018-01-15T13:40:34.964Z,89.07
2018-01-15T13:41:41.659Z,89.03
2018-01-15T13:42:48.360Z,88.94
2018-01-15T13:43:55.060Z,88.91
2018-01-15T13:45:01.740Z,88.86
2018-01-15T13:46:08.420Z,88.85
2018-01-15T13:47:15.105Z,88.83
2018-01-15T13:48:22.303Z,88.82
2018-01-15T13:49:29.097Z,88.76
2018-01-15T13:50:35.816Z,88.74
2018-01-15T13:51:42.569Z,88.68
2018-01-15T13:52:49.251Z,88.60
2018-01-15T13:53:55.967Z,88.54
2018-01-15T13:55:02.631Z,88.46
2018-01-15T13:56:09.307Z,88.48
2018-01-15T13:57:16.064Z,88.50
2018-01-15T13:58:22.763Z,88.48
2018-01-15T13:59:29.650Z,88.42
2018-01-15T14:00:36.321Z,88.38
2018-01-15T14:01:43.089Z,88.35
2018-01-15T14:02:49.759Z,88.35
2018-01-15T14:03:56.454Z,88.30
2018-01-15T14:05:03.143Z,88.25
2018-01-15T14:06:09.912Z,88.26
2018-01-15T14:07:16.646Z,88.23
2018-01-15T14:08:23.442Z,88.25
2018-01-15T14:09:30.283Z,88.23
2018-01-15T14:10:36.995Z,88.24
2018-01-15T14:11:43.730Z,88.23
2018-01-15T14:12:50.633Z,88.23
2018-01-15T14:13:57.497Z,88.24
2018-01-15T14:15:04.308Z,88.21
2018-01-15T14:16:11.051Z,88.18
2018-01-15T14:17:17.781Z,88.16
2018-01-15T14:18:24.521Z,88.16
2018-01-15T14:19:31.403Z,88.16
2018-01-15T14:20:38.220Z,88.15